Time;durP1;ratioP1;P1;durP2;ratioP2;P2;SDS_P1;SDS_P2;PMS_P1;PMS_P2;Temp;Humidity;BMP_temperature;BMP_pressure;BME280_temperature;BME280_humidity;BME280_pressure;Samples;Min_cycle;Max_cycle;Signal;HPM_P1;HPM_P2
2022/06/30 00:00:15;;;;;;;8.70;7.90;;;22.40;1.00;;;;;;5045540;28;20666;-52
2022/06/30 00:02:42;;;;;;;12.17;8.70;;;22.40;99.90;;;;;;5043318;28;20601;-54
2022/06/30 00:05:09;;;;;;;9.30;8.43;;;22.40;99.90;;;;;;5039719;28;20592;-52
2022/06/30 00:07:36;;;;;;;9.10;8.23;;;22.30;1.00;;;;;;5054585;28;20211;-53
2022/06/30 00:10:03;;;;;;;8.63;7.83;;;22.30;99.90;;;;;;5046837;28;20872;-52
2022/06/30 00:12:30;;;;;;;10.83;8.43;;;22.30;99.90;;;;;;5035329;28;20805;-54
2022/06/30 00:14:57;;;;;;;11.87;8.70;;;22.20;1.00;;;;;;5041067;28;20294;-53
2022/06/30 00:17:24;;;;;;;9.40;8.50;;;22.20;99.90;;;;;;5042443;28;20748;-53
2022/06/30 00:19:50;;;;;;;9.90;8.23;;;22.20;99.90;;;;;;5051268;28;20249;-53
2022/06/30 00:22:17;;;;;;;10.73;8.47;;;22.20;99.90;;;;;;5030785;28;20309;-54
2022/06/30 00:24:44;;;;;;;8.97;8.03;;;22.20;99.90;;;;;;5045853;28;20297;-53
2022/06/30 00:27:11;;;;;;;9.40;8.50;;;22.10;99.90;;;;;;5043528;28;20524;-56
2022/06/30 00:29:38;;;;;;;10.50;9.40;;;22.10;1.00;;;;;;5039708;28;20651;-52
2022/06/30 00:32:06;;;;;;;10.90;9.17;;;22.10;99.90;;;;;;5037861;28;20949;-52
2022/06/30 00:34:33;;;;;;;10.47;9.50;;;22.10;1.00;;;;;;5042385;28;20209;-53
2022/06/30 00:37:00;;;;;;;11.43;8.63;;;22.10;1.00;;;;;;5037500;28;20203;-53
2022/06/30 00:39:28;;;;;;;9.80;8.67;;;22.10;1.00;;;;;;5046990;28;20219;-54
2022/06/30 00:41:55;;;;;;;10.80;9.73;;;22.00;1.00;;;;;;5040321;28;20238;-53
2022/06/30 00:44:22;;;;;;;9.40;8.50;;;21.90;1.00;;;;;;5041066;28;20635;-53
2022/06/30 00:46:50;;;;;;;10.53;9.53;;;21.90;1.00;;;;;;5044956;28;20622;-53
2022/06/30 00:49:18;;;;;;;9.63;8.77;;;21.90;1.00;;;;;;5042322;28;20254;-53
2022/06/30 00:51:45;;;;;;;11.57;9.87;;;21.90;1.00;;;;;;5042200;28;20742;-51
2022/06/30 00:54:12;;;;;;;10.57;9.60;;;21.90;1.00;;;;;;5045752;28;20814;-51
2022/06/30 00:56:42;;;;;;;10.73;9.47;;;21.40;1.00;;;;;;5044545;28;20922;-53
2022/06/30 00:59:12;;;;;;;10.30;9.20;;;21.30;1.00;;;;;;5039307;28;20298;-52
2022/06/30 01:01:41;;;;;;;10.37;9.40;;;21.40;99.90;;;;;;5042037;28;20742;-53
2022/06/30 01:04:09;;;;;;;11.23;9.90;;;21.40;1.00;;;;;;5044380;28;20612;-53
2022/06/30 01:06:37;;;;;;;10.73;9.57;;;21.50;1.00;;;;;;5045382;28;20209;-53
2022/06/30 01:09:04;;;;;;;12.60;9.80;;;21.50;1.00;;;;;;5043094;28;20275;-52
2022/06/30 01:14:18;;;;;;;11.70;10.50;;;21.40;1.00;;;;;;5041226;28;20227;-52
2022/06/30 01:16:46;;;;;;;10.90;9.80;;;21.20;15.80;;;;;;5045520;28;20250;-52
2022/06/30 01:19:16;;;;;;;11.47;10.27;;;21.20;99.90;;;;;;5043012;28;20274;-53
2022/06/30 01:22:03;;;;;;;13.20;10.57;;;21.30;1.00;;;;;;5046858;28;20239;-53
2022/06/30 01:24:30;;;;;;;12.23;10.20;;;21.30;1.00;;;;;;5042191;28;20204;-52
2022/06/30 01:26:57;;;;;;;11.93;9.87;;;21.30;1.00;;;;;;5045271;28;20253;-53
2022/06/30 01:29:24;;;;;;;11.77;10.50;;;21.30;1.00;;;;;;5041903;28;20610;-53
2022/06/30 01:31:51;;;;;;;11.07;10.07;;;21.30;1.00;;;;;;5043855;28;20199;-54
2022/06/30 01:34:19;;;;;;;11.17;9.97;;;21.20;99.90;;;;;;5043747;28;20196;-52
2022/06/30 01:36:47;;;;;;;11.40;10.10;;;21.20;99.90;;;;;;5047650;28;20669;-52
2022/06/30 01:39:14;;;;;;;11.73;9.53;;;21.10;1.00;;;;;;5050616;28;20215;-52
2022/06/30 01:41:41;;;;;;;11.43;10.30;;;21.10;1.00;;;;;;5048217;28;20671;-53
2022/06/30 01:44:07;;;;;;;12.43;10.90;;;21.10;99.90;;;;;;5050153;28;20226;-52
2022/06/30 01:46:34;;;;;;;12.30;10.23;;;21.00;99.90;;;;;;5046340;28;20200;-53
2022/06/30 01:49:01;;;;;;;12.57;10.17;;;21.10;48.60;;;;;;5050332;28;20205;-52
2022/06/30 01:51:28;;;;;;;11.53;10.40;;;21.00;1.00;;;;;;5044732;28;20231;-52
2022/06/30 01:53:55;;;;;;;14.60;10.87;;;21.10;1.00;;;;;;5048999;28;20229;-53
2022/06/30 01:56:22;;;;;;;15.10;10.50;;;21.10;99.90;;;;;;5051139;28;21052;-53
2022/06/30 01:58:53;;;;;;;12.83;10.53;;;21.00;99.90;;;;;;5050047;28;20983;-51
2022/06/30 02:01:20;;;;;;;11.50;10.40;;;21.00;1.00;;;;;;5027433;28;20899;-53
2022/06/30 02:03:47;;;;;;;11.07;10.07;;;21.00;99.90;;;;;;5048044;28;20270;-53
2022/06/30 02:06:14;;;;;;;12.97;10.43;;;20.90;99.90;;;;;;5043746;28;20202;-52
2022/06/30 02:08:40;;;;;;;12.93;10.10;;;20.90;99.90;;;;;;5052313;28;20286;-52
2022/06/30 02:11:07;;;;;;;12.20;10.50;;;20.90;99.90;;;;;;5045019;28;20316;-52
2022/06/30 02:13:34;;;;;;;11.20;10.13;;;20.90;99.90;;;;;;5044604;28;20201;-54
2022/06/30 02:16:01;;;;;;;13.40;10.93;;;20.90;99.90;;;;;;5045031;28;20295;-53
2022/06/30 02:18:28;;;;;;;11.37;10.20;;;20.80;99.90;;;;;;5043680;28;20255;-52
2022/06/30 02:20:57;;;;;;;10.93;9.93;;;20.90;1.00;;;;;;5028503;28;20302;-53
2022/06/30 02:23:24;;;;;;;14.73;10.90;;;20.90;1.00;;;;;;5044357;28;20850;-53
2022/06/30 02:25:51;;;;;;;12.57;10.47;;;20.90;1.00;;;;;;5050798;28;20299;-52
2022/06/30 02:28:17;;;;;;;12.43;10.93;;;20.90;1.00;;;;;;5045271;28;20212;-52
2022/06/30 02:30:45;;;;;;;12.63;11.43;;;20.70;1.00;;;;;;5028687;28;20300;-52
2022/06/30 02:33:13;;;;;;;16.23;11.60;;;20.80;1.00;;;;;;5021740;28;20697;-53
2022/06/30 02:35:39;;;;;;;12.10;10.73;;;20.90;1.00;;;;;;5049913;28;20778;-52
2022/06/30 02:38:10;;;;;;;13.27;11.30;;;20.70;1.00;;;;;;5047709;28;20655;-53
2022/06/30 02:40:37;;;;;;;13.33;11.93;;;20.70;1.00;;;;;;5044867;28;20620;-53
2022/06/30 02:43:04;;;;;;;12.13;10.97;;;20.20;1.00;;;;;;5045627;28;20213;-53
2022/06/30 02:45:31;;;;;;;11.80;10.70;;;20.30;1.00;;;;;;5041399;28;21726;-52
2022/06/30 02:47:59;;;;;;;12.57;11.27;;;20.20;99.90;;;;;;5046176;28;20218;-53
2022/06/30 02:50:26;;;;;;;12.77;11.13;;;20.20;99.90;;;;;;5047722;28;20674;-53
2022/06/30 02:52:53;;;;;;;14.07;12.50;;;20.20;1.00;;;;;;5044910;28;20662;-54
2022/06/30 02:55:21;;;;;;;12.10;10.90;;;20.20;1.00;;;;;;5047418;28;20641;-54
2022/06/30 02:57:48;;;;;;;12.83;11.53;;;20.20;99.90;;;;;;5041018;28;20326;-54
2022/06/30 03:00:15;;;;;;;13.43;11.63;;;20.20;99.90;;;;;;5029749;28;20321;-53
2022/06/30 03:02:42;;;;;;;11.97;10.77;;;19.80;1.00;;;;;;5045910;28;20646;-54
2022/06/30 03:05:09;;;;;;;13.83;11.83;;;19.90;1.00;;;;;;5044816;28;20353;-53
2022/06/30 03:07:36;;;;;;;12.87;11.43;;;19.90;99.90;;;;;;5046966;28;20718;-53
2022/06/30 03:10:03;;;;;;;17.43;11.87;;;19.70;1.00;;;;;;5044155;28;20279;-55
2022/06/30 03:12:30;;;;;;;12.77;11.57;;;19.80;1.00;;;;;;5038916;28;20811;-53
2022/06/30 03:14:57;;;;;;;12.80;11.43;;;19.90;77.20;;;;;;5039132;28;20622;-54
2022/06/30 03:17:25;;;;;;;13.80;12.27;;;19.90;1.00;;;;;;5045973;28;20293;-55
2022/06/30 03:19:51;;;;;;;15.43;12.37;;;19.80;99.90;;;;;;5045701;28;20200;-54
2022/06/30 03:22:18;;;;;;;13.50;12.10;;;19.80;1.00;;;;;;5044651;28;21028;-54
2022/06/30 03:24:45;;;;;;;13.57;12.13;;;19.80;99.90;;;;;;5048009;28;20427;-55
2022/06/30 03:27:12;;;;;;;13.27;11.10;;;19.80;41.60;;;;;;5049217;28;20294;-53
2022/06/30 03:29:39;;;;;;;13.80;12.33;;;19.80;99.90;;;;;;5049278;28;20352;-51
2022/06/30 03:32:06;;;;;;;13.53;12.23;;;19.80;17.30;;;;;;5044728;28;20545;-51
2022/06/30 03:34:32;;;;;;;14.33;12.90;;;19.80;48.00;;;;;;5039634;28;20950;-54
2022/06/30 03:36:59;;;;;;;15.50;13.10;;;19.80;99.90;;;;;;5044858;28;20830;-49
2022/06/30 03:39:26;;;;;;;13.47;12.20;;;19.80;1.00;;;;;;5027515;28;20520;-50
2022/06/30 03:41:53;;;;;;;14.17;12.70;;;19.80;1.00;;;;;;5039692;28;20307;-52
2022/06/30 03:44:19;;;;;;;13.77;12.47;;;19.80;99.90;;;;;;5043493;28;20290;-51
2022/06/30 03:46:47;;;;;;;14.80;13.30;;;19.80;99.90;;;;;;5042002;28;20295;-53
2022/06/30 03:49:21;;;;;;;14.80;13.40;;;19.80;1.00;;;;;;5041971;28;22060;-54
2022/06/30 03:51:48;;;;;;;15.30;13.80;;;19.70;99.90;;;;;;5038353;28;20258;-53
2022/06/30 03:54:15;;;;;;;15.77;13.10;;;19.70;1.00;;;;;;5046934;28;20343;-51
2022/06/30 03:56:42;;;;;;;14.77;13.27;;;19.60;1.00;;;;;;5037557;28;20572;-54
2022/06/30 03:59:09;;;;;;;15.03;13.60;;;19.60;99.90;;;;;;5038664;28;20676;-53
2022/06/30 04:01:36;;;;;;;16.47;14.00;;;19.60;1.00;;;;;;5036633;28;21085;-53
2022/06/30 04:04:03;;;;;;;15.57;13.97;;;19.70;1.00;;;;;;5043904;28;20920;-53
2022/06/30 04:06:30;;;;;;;16.90;14.30;;;19.60;88.10;;;;;;5042641;28;20264;-53
2022/06/30 04:08:57;;;;;;;15.80;14.20;;;19.60;99.90;;;;;;5046990;28;20196;-53
2022/06/30 04:11:23;;;;;;;17.00;15.23;;;19.60;1.00;;;;;;5041337;28;20335;-51
2022/06/30 04:13:50;;;;;;;14.87;13.37;;;19.60;1.00;;;;;;5041896;28;20227;-52
2022/06/30 04:16:17;;;;;;;14.67;13.27;;;19.60;1.00;;;;;;5040224;28;20199;-52
2022/06/30 04:18:44;;;;;;;14.73;13.17;;;19.60;1.00;;;;;;5041431;28;20948;-53
2022/06/30 04:21:13;;;;;;;16.20;14.50;;;19.60;1.00;;;;;;5043324;28;20591;-52
2022/06/30 04:23:40;;;;;;;15.90;14.20;;;19.40;1.00;;;;;;5043086;28;20223;-54
2022/06/30 04:26:06;;;;;;;16.33;14.73;;;19.40;1.00;;;;;;5043308;28;21464;-54
2022/06/30 04:28:33;;;;;;;15.83;14.23;;;19.30;1.00;;;;;;5041564;28;20211;-51
2022/06/30 04:33:46;;;;;;;16.97;15.27;;;19.00;1.00;;;;;;5041371;28;20232;-54
2022/06/30 04:36:13;;;;;;;17.87;15.97;;;18.70;1.00;;;;;;5048067;28;20329;-52
2022/06/30 04:38:40;;;;;;;17.27;15.40;;;18.70;99.90;;;;;;5050523;28;20607;-53
2022/06/30 04:41:25;;;;;;;16.20;14.50;;;18.60;1.00;;;;;;5045791;28;20333;-52
2022/06/30 04:43:57;;;;;;;15.77;14.17;;;18.80;87.70;;;;;;5044248;28;20274;-53
2022/06/30 04:46:25;;;;;;;16.20;14.43;;;19.10;1.00;;;;;;5046842;28;20212;-52
2022/06/30 04:48:53;;;;;;;17.03;14.83;;;19.20;99.90;;;;;;5043281;28;20342;-52
2022/06/30 04:51:20;;;;;;;16.40;14.67;;;18.80;1.00;;;;;;5045835;28;20306;-53
2022/06/30 04:53:47;;;;;;;16.10;14.50;;;18.70;99.90;;;;;;5042198;28;20200;-53
2022/06/30 04:56:15;;;;;;;15.80;14.20;;;19.00;4.80;;;;;;5047266;28;20191;-53
2022/06/30 04:58:42;;;;;;;16.47;14.73;;;18.70;99.90;;;;;;5046630;28;20199;-53
2022/06/30 05:01:10;;;;;;;16.57;14.87;;;18.70;99.90;;;;;;5038462;28;20329;-52
2022/06/30 05:03:37;;;;;;;16.80;15.20;;;18.80;99.90;;;;;;5038799;28;20207;-53
2022/06/30 05:06:05;;;;;;;17.47;15.83;;;18.80;99.90;;;;;;5039227;28;20226;-52
2022/06/30 05:08:32;;;;;;;18.00;16.17;;;18.90;99.90;;;;;;5045788;28;20204;-52
2022/06/30 05:10:59;;;;;;;18.97;17.07;;;19.00;99.90;;;;;;5043158;28;20297;-52
2022/06/30 05:13:26;;;;;;;19.50;17.60;;;18.90;99.90;;;;;;5042675;28;20295;-52
2022/06/30 05:15:53;;;;;;;19.87;17.77;;;18.90;99.90;;;;;;5042190;28;20210;-52
2022/06/30 05:18:21;;;;;;;23.23;18.70;;;18.80;99.90;;;;;;5041438;28;20229;-52
2022/06/30 05:20:48;;;;;;;20.27;18.27;;;18.80;99.90;;;;;;5041609;28;20240;-53
2022/06/30 05:23:14;;;;;;;22.20;18.73;;;18.90;99.90;;;;;;5042314;28;20206;-50
2022/06/30 05:28:27;;;;;;;21.23;19.00;;;18.80;99.90;;;;;;5042741;28;20208;-51
2022/06/30 05:30:55;;;;;;;21.77;19.50;;;18.80;99.90;;;;;;5037936;28;20223;-53
2022/06/30 05:33:23;;;;;;;21.53;18.30;;;18.70;99.90;;;;;;5035001;28;20199;-53
2022/06/30 05:35:54;;;;;;;20.40;18.20;;;18.70;99.90;;;;;;5041198;28;20226;-53
2022/06/30 05:38:21;;;;;;;20.63;18.47;;;18.80;99.90;;;;;;5040487;28;20203;-52
2022/06/30 05:40:48;;;;;;;21.47;18.03;;;18.70;99.90;;;;;;5047495;28;20228;-53
2022/06/30 05:43:18;;;;;;;19.03;17.13;;;18.80;99.90;;;;;;5046833;28;20267;-52
2022/06/30 05:45:53;;;;;;;23.80;16.70;;;18.90;99.90;;;;;;5046182;28;20713;-52
2022/06/30 05:48:20;;;;;;;22.27;17.03;;;18.80;99.90;;;;;;5050332;28;20267;-51
2022/06/30 05:50:47;;;;;;;20.47;16.87;;;18.80;99.90;;;;;;5052192;28;20214;-52
2022/06/30 05:53:15;;;;;;;19.23;17.10;;;19.10;99.90;;;;;;5048937;28;20205;-52
2022/06/30 05:55:42;;;;;;;16.43;14.73;;;19.10;99.90;;;;;;5026401;28;20320;-52
2022/06/30 05:58:11;;;;;;;16.60;14.93;;;19.20;30.20;;;;;;5037714;28;20272;-53
2022/06/30 06:00:38;;;;;;;15.30;13.40;;;19.20;1.00;;;;;;5038945;28;20239;-52
2022/06/30 06:03:05;;;;;;;15.00;13.37;;;19.10;1.00;;;;;;5035898;28;20228;-53
2022/06/30 06:05:31;;;;;;;15.07;12.80;;;19.30;1.00;;;;;;5040995;28;20867;-52
2022/06/30 06:08:06;;;;;;;14.50;11.90;;;19.30;1.00;;;;;;5023441;28;20212;-54
2022/06/30 06:10:33;;;;;;;15.47;10.73;;;19.40;1.00;;;;;;5044914;28;20303;-52
2022/06/30 06:13:00;;;;;;;15.53;10.80;;;19.40;99.90;;;;;;5033860;28;20236;-53
2022/06/30 06:15:27;;;;;;;13.80;11.03;;;19.50;1.00;;;;;;5039654;28;20316;-53
2022/06/30 06:17:54;;;;;;;16.17;10.87;;;19.50;99.90;;;;;;5043549;28;20541;-52
2022/06/30 06:20:21;;;;;;;13.20;9.67;;;19.60;1.00;;;;;;5045736;28;20199;-51
2022/06/30 06:22:48;;;;;;;11.07;8.23;;;19.90;1.00;;;;;;5044580;28;20211;-52
2022/06/30 06:25:15;;;;;;;10.30;8.63;;;19.90;99.90;;;;;;5049160;28;20679;-51
2022/06/30 06:29:05;;;;;;;9.07;8.17;;;20.10;1.00;;;;;;5049638;28;20225;-51
2022/06/30 06:30:29;;;;;;;9.73;7.60;;;20.30;1.00;;;;;;5029073;28;20231;-52
2022/06/30 06:32:56;;;;;;;8.93;6.40;;;20.20;1.00;;;;;;5040587;28;20204;-55
2022/06/30 06:35:23;;;;;;;12.20;6.90;;;20.30;1.00;;;;;;5043547;28;20906;-51
2022/06/30 06:37:50;;;;;;;8.10;6.23;;;20.20;99.90;;;;;;5041162;28;20293;-52
2022/06/30 06:40:17;;;;;;;8.23;5.67;;;20.20;1.00;;;;;;5044514;28;20394;-53
2022/06/30 06:42:44;;;;;;;6.93;5.83;;;20.20;99.90;;;;;;5044519;28;20915;-52
2022/06/30 06:45:11;;;;;;;9.53;6.00;;;20.20;1.00;;;;;;5040783;28;20211;-51
2022/06/30 06:47:38;;;;;;;11.33;6.07;;;20.10;1.00;;;;;;5037509;28;20212;-53
2022/06/30 06:50:07;;;;;;;8.23;5.80;;;20.20;1.00;;;;;;5037244;28;21614;-52
2022/06/30 06:52:34;;;;;;;7.70;5.20;;;20.40;99.90;;;;;;5049433;28;20220;-53
2022/06/30 06:55:01;;;;;;;9.23;5.60;;;20.60;99.90;;;;;;5046717;28;20219;-52
2022/06/30 06:57:38;;;;;;;8.07;5.20;;;20.50;99.90;;;;;;5048717;28;20195;-53
2022/06/30 07:00:08;;;;;;;9.63;5.20;;;20.50;99.90;;;;;;5048251;28;20230;-53
2022/06/30 07:02:35;;;;;;;8.17;5.43;;;20.80;69.40;;;;;;5046753;28;20219;-54
2022/06/30 07:05:02;;;;;;;6.93;5.00;;;21.10;99.90;;;;;;5054225;28;20261;-53
2022/06/30 07:07:33;;;;;;;8.80;4.97;;;21.20;99.90;;;;;;5058534;28;20196;-52
2022/06/30 07:10:00;;;;;;;8.10;4.63;;;21.30;1.00;;;;;;5058181;28;20217;-51
2022/06/30 07:12:27;;;;;;;7.50;5.00;;;21.30;99.90;;;;;;5058290;28;20412;-53
2022/06/30 07:14:54;;;;;;;8.60;4.97;;;21.10;1.00;;;;;;5036161;28;20200;-53
2022/06/30 07:17:20;;;;;;;8.30;4.43;;;21.30;1.00;;;;;;5055748;28;20187;-52
2022/06/30 07:19:47;;;;;;;9.50;4.70;;;21.30;1.00;;;;;;5057278;28;20560;-52
2022/06/30 07:22:16;;;;;;;13.07;4.93;;;21.10;99.90;;;;;;5056196;28;20225;-52
2022/06/30 07:24:44;;;;;;;9.63;4.47;;;21.40;1.00;;;;;;5056381;28;20212;-53
2022/06/30 07:27:11;;;;;;;8.20;4.40;;;21.70;1.00;;;;;;5047431;28;20211;-52
2022/06/30 07:29:38;;;;;;;5.87;3.87;;;21.80;99.90;;;;;;5054146;28;20215;-52
2022/06/30 07:32:05;;;;;;;9.50;4.30;;;22.00;1.00;;;;;;5051092;28;20311;-52
2022/06/30 07:34:32;;;;;;;8.43;4.00;;;22.00;1.00;;;;;;5054916;28;20581;-52
2022/06/30 07:36:59;;;;;;;8.37;3.67;;;21.80;1.00;;;;;;5056587;28;20686;-52
2022/06/30 07:39:25;;;;;;;7.80;3.63;;;22.00;1.00;;;;;;5054791;28;20207;-53
2022/06/30 07:41:52;;;;;;;10.17;3.33;;;21.90;1.00;;;;;;5051890;28;20199;-53
2022/06/30 07:44:19;;;;;;;6.13;3.27;;;22.50;1.00;;;;;;5053800;28;20482;-52
2022/06/30 07:46:47;;;;;;;11.83;4.37;;;22.50;1.00;;;;;;5054489;28;20729;-53
2022/06/30 07:49:13;;;;;;;6.93;3.20;;;23.00;99.90;;;;;;5037434;28;20221;-52
2022/06/30 07:51:40;;;;;;;4.63;2.83;;;22.70;99.90;;;;;;5055940;28;20234;-52
2022/06/30 07:54:07;;;;;;;6.53;2.93;;;23.00;99.90;;;;;;5047959;28;20291;-53
2022/06/30 07:56:34;;;;;;;7.33;3.33;;;22.80;99.90;;;;;;5057655;28;20510;-53
2022/06/30 07:59:01;;;;;;;5.80;3.10;;;22.70;91.00;;;;;;5070298;28;20252;-53
2022/06/30 08:01:28;;;;;;;6.07;3.07;;;22.70;1.00;;;;;;5054092;28;20299;-52
2022/06/30 08:04:09;;;;;;;6.53;2.80;;;22.90;1.00;;;;;;4993388;28;20224;-52
2022/06/30 08:06:36;;;;;;;6.73;2.50;;;23.00;1.00;;;;;;5011359;28;20725;-51
2022/06/30 08:09:03;;;;;;;4.97;2.80;;;22.80;92.40;;;;;;5006861;28;20982;-52
2022/06/30 08:11:30;;;;;;;4.10;1.97;;;23.80;1.00;;;;;;5010882;28;20662;-52
2022/06/30 08:13:56;;;;;;;6.27;2.67;;;24.40;99.90;;;;;;5013694;28;20304;-52
2022/06/30 08:16:24;;;;;;;7.93;3.13;;;24.20;99.90;;;;;;5011079;28;20205;-51
2022/06/30 08:18:50;;;;;;;5.90;2.60;;;24.60;1.00;;;;;;5008106;28;20202;-52
2022/06/30 08:21:17;;;;;;;4.90;2.23;;;25.50;23.90;;;;;;5010573;28;20731;-52
2022/06/30 08:23:44;;;;;;;5.50;2.00;;;26.90;1.00;;;;;;5007144;28;20298;-53
2022/06/30 08:26:11;;;;;;;5.13;2.70;;;27.80;99.90;;;;;;5007035;28;20743;-52
2022/06/30 08:28:38;;;;;;;5.07;2.60;;;27.20;1.00;;;;;;5007526;28;20760;-51
2022/06/30 08:31:05;;;;;;;5.70;2.77;;;26.90;99.90;;;;;;5007810;28;20211;-51
2022/06/30 08:33:31;;;;;;;5.37;2.97;;;27.10;99.90;;;;;;5027314;28;20212;-52
2022/06/30 08:35:58;;;;;;;5.93;2.60;;;26.00;1.00;;;;;;5032663;28;20238;-50
2022/06/30 08:38:28;;;;;;;4.73;2.20;;;25.30;1.00;;;;;;5056154;28;20207;-52
2022/06/30 08:43:43;;;;;;;6.70;2.80;;;27.00;99.90;;;;;;5047568;28;20282;-51
2022/06/30 08:46:11;;;;;;;3.03;2.10;;;27.50;99.90;;;;;;5050043;28;21067;-50
2022/06/30 08:48:39;;;;;;;3.60;2.10;;;27.80;99.90;;;;;;5052838;28;20206;-50
2022/06/30 08:51:07;;;;;;;5.50;2.33;;;28.30;66.00;;;;;;5051092;28;20206;-50
2022/06/30 08:53:45;;;;;;;6.07;2.40;;;27.20;99.90;;;;;;5048670;28;20571;-52
2022/06/30 08:56:12;;;;;;;6.20;2.87;;;26.60;99.90;;;;;;5050571;28;20223;-51
2022/06/30 08:58:40;;;;;;;9.83;2.30;;;25.80;99.90;;;;;;5034345;28;20203;-52
2022/06/30 09:01:08;;;;;;;8.60;2.47;;;26.80;99.90;;;;;;5045561;28;20234;-51
2022/06/30 09:03:38;;;;;;;6.30;2.63;;;27.30;99.90;;;;;;5035568;28;20644;-51
2022/06/30 09:06:06;;;;;;;9.40;2.58;;;26.50;99.90;;;;;;5052889;28;20211;-51
2022/06/30 09:08:32;;;;;;;4.35;2.67;;;26.20;99.90;;;;;;5055500;28;20261;-50
2022/06/30 09:10:59;;;;;;;4.13;2.33;;;26.60;99.90;;;;;;5055155;28;20210;-52
2022/06/30 09:13:50;;;;;;;7.07;2.30;;;27.50;99.90;;;;;;5049728;28;20239;-52
2022/06/30 09:16:20;;;;;;;4.97;2.13;;;27.10;99.90;;;;;;5047965;28;20298;-50
2022/06/30 09:18:47;;;;;;;7.30;2.83;;;27.30;99.90;;;;;;5045957;28;20208;-51
2022/06/30 09:21:18;;;;;;;5.47;2.60;;;27.30;99.90;;;;;;5044403;28;20675;-51
2022/06/30 09:23:47;;;;;;;3.85;2.28;;;27.30;99.90;;;;;;5046223;28;20779;-52
2022/06/30 09:26:22;;;;;;;4.83;2.33;;;27.50;97.40;;;;;;5044665;28;20237;-54
2022/06/30 09:28:55;;;;;;;4.97;2.23;;;27.70;42.20;;;;;;5050697;28;20653;-53
2022/06/30 09:31:45;;;;;;;3.43;2.20;;;27.30;57.40;;;;;;5047929;28;20714;-51
2022/06/30 09:34:19;;;;;;;6.33;2.47;;;27.00;74.40;;;;;;5049007;28;20424;-51
2022/06/30 09:36:51;;;;;;;4.37;2.77;;;27.00;95.90;;;;;;5048932;28;20275;-53
2022/06/30 09:39:21;;;;;;;3.90;1.90;;;27.20;99.90;;;;;;5048605;28;20303;-51
2022/06/30 09:41:50;;;;;;;4.35;1.73;;;27.20;99.90;;;;;;5046193;28;20219;-54
2022/06/30 09:44:18;;;;;;;4.45;2.13;;;28.10;99.90;;;;;;5047871;28;20211;-51
2022/06/30 09:47:00;;;;;;;4.73;2.07;;;28.20;99.90;;;;;;5052383;28;20290;-51
2022/06/30 09:49:34;;;;;;;5.65;2.03;;;27.80;99.90;;;;;;5031283;28;20336;-53
2022/06/30 09:52:14;;;;;;;4.60;2.20;;;27.30;99.90;;;;;;5050119;28;20565;-50
2022/06/30 09:54:58;;;;;;;3.88;2.10;;;26.10;99.90;;;;;;5049458;28;20341;-51
2022/06/30 09:57:44;;;;;;;5.88;1.85;;;25.80;1.00;;;;;;5050727;28;20260;-50
2022/06/30 10:00:14;;;;;;;6.30;2.30;;;26.20;99.90;;;;;;5048979;28;20230;-50
2022/06/30 10:02:47;;;;;;;5.90;2.87;;;26.40;99.90;;;;;;5052718;28;20238;-51
2022/06/30 10:05:18;;;;;;;7.45;2.42;;;26.60;99.90;;;;;;5050454;28;20298;-53
2022/06/30 10:07:46;;;;;;;4.15;2.28;;;26.30;99.90;;;;;;5052846;28;20208;-51
2022/06/30 10:10:16;;;;;;;3.17;2.05;;;26.60;99.90;;;;;;5049331;28;20233;-52
2022/06/30 10:12:45;;;;;;;3.65;2.03;;;25.40;1.00;;;;;;5049849;28;20519;-51
2022/06/30 10:15:16;;;;;;;3.93;2.17;;;25.50;1.00;;;;;;5053694;28;20299;-50
2022/06/30 10:17:50;;;;;;;4.40;2.50;;;25.90;1.00;;;;;;5050697;28;20234;-52
2022/06/30 10:20:19;;;;;;;4.90;2.40;;;25.70;99.90;;;;;;5049102;28;20199;-54
2022/06/30 10:22:46;;;;;;;2.70;2.47;;;25.30;1.00;;;;;;5060227;28;20224;-51
2022/06/30 10:25:13;;;;;;;4.40;2.00;;;25.20;99.90;;;;;;5046048;28;20254;-52
2022/06/30 10:27:41;;;;;;;3.80;1.97;;;24.90;1.00;;;;;;5048038;28;20934;-52
2022/06/30 10:30:12;;;;;;;3.00;2.33;;;25.00;1.00;;;;;;5049015;28;21513;-53
2022/06/30 10:33:12;;;;;;;2.90;1.50;;;25.00;1.00;;;;;;5061077;28;20290;-50
2022/06/30 10:35:44;;;;;;;4.77;2.10;;;25.60;1.00;;;;;;5050880;28;20638;-51
2022/06/30 10:38:20;;;;;;;3.90;2.40;;;25.70;99.90;;;;;;5051490;28;20195;-49
2022/06/30 10:41:10;;;;;;;3.43;1.67;;;25.10;1.00;;;;;;5056014;28;20214;-53
2022/06/30 10:44:05;;;;;;;6.07;1.80;;;25.60;1.00;;;;;;5053547;28;20541;-54
2022/06/30 10:46:36;;;;;;;3.40;1.77;;;26.20;99.90;;;;;;5046293;28;20261;-53
2022/06/30 10:49:11;;;;;;;4.33;2.13;;;25.90;99.90;;;;;;5051812;28;20214;-51
2022/06/30 10:51:39;;;;;;;2.77;1.63;;;26.20;99.90;;;;;;5047270;28;20240;-50
2022/06/30 10:54:08;;;;;;;5.73;2.50;;;26.30;99.90;;;;;;5047548;28;20294;-53
2022/06/30 10:56:53;;;;;;;2.37;1.97;;;25.90;99.90;;;;;;5059465;28;20222;-50
2022/06/30 10:59:37;;;;;;;3.10;1.73;;;26.30;99.90;;;;;;5046643;28;20207;-51
2022/06/30 11:02:15;;;;;;;4.37;2.23;;;27.10;99.90;;;;;;5047259;28;20386;-53
2022/06/30 11:04:45;;;;;;;3.17;1.90;;;26.70;99.90;;;;;;5047357;28;20612;-53
2022/06/30 11:07:14;;;;;;;3.23;1.57;;;27.30;99.90;;;;;;5045250;28;20666;-51
2022/06/30 11:09:44;;;;;;;2.73;1.57;;;27.20;99.90;;;;;;5050728;28;20203;-53
2022/06/30 11:12:12;;;;;;;7.63;1.90;;;27.30;99.90;;;;;;5041394;28;20219;-55
2022/06/30 11:14:53;;;;;;;5.33;1.63;;;26.90;99.90;;;;;;5047155;28;20233;-50
2022/06/30 11:17:23;;;;;;;4.87;1.93;;;27.00;99.90;;;;;;5046123;28;20309;-53
2022/06/30 11:20:00;;;;;;;4.07;1.97;;;27.00;99.90;;;;;;5043466;28;20735;-50
2022/06/30 11:22:29;;;;;;;5.67;1.87;;;26.60;99.90;;;;;;5042339;28;20607;-51
2022/06/30 11:25:03;;;;;;;4.85;2.28;;;26.00;99.90;;;;;;5051817;28;20682;-52
2022/06/30 11:27:32;;;;;;;4.57;1.67;;;25.60;1.00;;;;;;5052860;28;20713;-51
2022/06/30 11:30:02;;;;;;;2.63;1.60;;;25.40;1.00;;;;;;5055236;28;20278;-51
2022/06/30 11:32:29;;;;;;;5.00;2.10;;;25.70;1.00;;;;;;5054896;28;20315;-50
2022/06/30 11:34:56;;;;;;;4.90;2.30;;;25.50;1.00;;;;;;5058240;28;20204;-51
2022/06/30 11:37:28;;;;;;;4.50;2.03;;;25.30;1.00;;;;;;5056436;28;20632;-50
2022/06/30 11:40:03;;;;;;;4.50;1.87;;;25.40;1.00;;;;;;5057214;28;20717;-50
2022/06/30 11:42:30;;;;;;;4.27;1.83;;;25.30;1.00;;;;;;5057405;28;20303;-49
2022/06/30 11:44:58;;;;;;;3.77;2.20;;;25.20;1.00;;;;;;5055971;28;20206;-52
2022/06/30 11:47:28;;;;;;;5.63;2.40;;;25.10;1.00;;;;;;5053773;28;20829;-51
2022/06/30 11:50:00;;;;;;;3.60;1.87;;;24.80;1.00;;;;;;5057786;28;20207;-51
2022/06/30 11:52:37;;;;;;;5.27;2.10;;;24.50;1.00;;;;;;5055346;28;20223;-50
2022/06/30 11:55:14;;;;;;;4.23;2.23;;;24.40;1.00;;;;;;5057239;28;20263;-52
2022/06/30 11:57:44;;;;;;;4.77;1.90;;;24.50;1.00;;;;;;5055244;28;20194;-52
2022/06/30 12:00:16;;;;;;;3.93;2.60;;;24.60;1.00;;;;;;5057280;28;20260;-51
2022/06/30 12:02:45;;;;;;;3.10;1.70;;;24.50;1.00;;;;;;5055286;28;20239;-50
2022/06/30 12:05:14;;;;;;;4.27;1.40;;;24.70;1.00;;;;;;5055409;28;20215;-54
2022/06/30 12:07:43;;;;;;;5.57;1.80;;;24.70;1.00;;;;;;5055826;28;20238;-50
2022/06/30 12:10:13;;;;;;;3.53;2.07;;;24.70;1.00;;;;;;5035785;28;20197;-53
2022/06/30 12:12:40;;;;;;;2.83;1.83;;;24.70;1.00;;;;;;5050296;28;20650;-53
2022/06/30 12:15:14;;;;;;;3.47;1.73;;;24.70;1.00;;;;;;5053305;28;20302;-50
2022/06/30 12:17:52;;;;;;;5.17;2.23;;;25.10;1.00;;;;;;5050435;28;20203;-52
2022/06/30 12:20:20;;;;;;;6.03;2.33;;;25.00;1.00;;;;;;5051914;28;20286;-51
2022/06/30 12:22:52;;;;;;;2.57;1.67;;;25.10;1.00;;;;;;5053148;28;20302;-53
2022/06/30 12:25:20;;;;;;;5.43;2.17;;;25.10;1.00;;;;;;5054723;28;20211;-51
2022/06/30 12:27:53;;;;;;;2.40;1.83;;;24.70;1.00;;;;;;5053814;28;20736;-50
2022/06/30 12:30:24;;;;;;;3.87;2.10;;;24.90;1.00;;;;;;5050564;28;22612;-53
2022/06/30 12:32:58;;;;;;;5.27;2.47;;;25.30;1.00;;;;;;5050372;28;20224;-51
2022/06/30 12:35:30;;;;;;;4.17;1.60;;;25.80;1.00;;;;;;5046909;28;20542;-50
2022/06/30 12:37:57;;;;;;;4.63;1.77;;;27.00;99.90;;;;;;5047048;28;20270;-51
2022/06/30 12:40:29;;;;;;;4.40;1.83;;;27.40;99.90;;;;;;5046933;28;20557;-51
2022/06/30 12:42:58;;;;;;;5.60;1.40;;;27.50;99.90;;;;;;5049220;28;20204;-53
2022/06/30 12:45:55;;;;;;;3.87;1.80;;;28.70;99.90;;;;;;5042662;28;20615;-52
2022/06/30 12:48:50;;;;;;;3.00;2.10;;;29.10;1.40;;;;;;5060778;28;20212;-51
2022/06/30 12:51:32;;;;;;;5.38;2.72;;;28.20;65.30;;;;;;5045068;28;20291;-51
2022/06/30 12:54:07;;;;;;;6.03;2.20;;;27.20;99.90;;;;;;5046799;28;20220;-52
2022/06/30 12:56:35;;;;;;;4.30;2.10;;;28.60;91.50;;;;;;5048914;28;20663;-50
2022/06/30 12:59:04;;;;;;;5.93;2.40;;;28.90;95.90;;;;;;5031319;28;20313;-52
2022/06/30 13:01:42;;;;;;;6.43;3.30;;;29.80;1.00;;;;;;5045261;28;20239;-51
2022/06/30 13:04:10;;;;;;;6.38;1.88;;;28.50;99.90;;;;;;5046747;28;20658;-53